sensor_id;sensor_type;location;lat;lon;timestamp;temperature;humidity
2054;DHT22;1032;52.542;13.440;2023-04-06T00:01:53;6.70;88.90
2054;DHT22;1032;52.542;13.440;2023-04-06T00:04:21;6.90;90.00
2054;DHT22;1032;52.542;13.440;2023-04-06T00:06:48;7.10;89.80
2054;DHT22;1032;52.542;13.440;2023-04-06T00:09:14;7.00;90.10
2054;DHT22;1032;52.542;13.440;2023-04-06T00:11:41;6.20;89.70
2054;DHT22;1032;52.542;13.440;2023-04-06T00:14:08;6.90;90.20
2054;DHT22;1032;52.542;13.440;2023-04-06T00:16:34;6.80;90.30
2054;DHT22;1032;52.542;13.440;2023-04-06T00:19:01;6.70;90.10
2054;DHT22;1032;52.542;13.440;2023-04-06T00:21:29;6.70;90.10
2054;DHT22;1032;52.542;13.440;2023-04-06T00:23:56;6.80;90.40
2054;DHT22;1032;52.542;13.440;2023-04-06T00:26:23;7.40;90.80
2054;DHT22;1032;52.542;13.440;2023-04-06T00:28:50;6.70;90.40
2054;DHT22;1032;52.542;13.440;2023-04-06T00:31:17;6.60;90.40
2054;DHT22;1032;52.542;13.440;2023-04-06T00:33:44;6.80;90.30
2054;DHT22;1032;52.542;13.440;2023-04-06T00:36:11;6.90;90.50
2054;DHT22;1032;52.542;13.440;2023-04-06T00:38:39;6.80;90.50
2054;DHT22;1032;52.542;13.440;2023-04-06T00:41:06;6.70;90.40
2054;DHT22;1032;52.542;13.440;2023-04-06T00:43:32;6.80;90.50
2054;DHT22;1032;52.542;13.440;2023-04-06T00:45:59;6.60;90.40
2054;DHT22;1032;52.542;13.440;2023-04-06T00:48:26;6.90;90.60
2054;DHT22;1032;52.542;13.440;2023-04-06T00:50:52;7.20;90.80
2054;DHT22;1032;52.542;13.440;2023-04-06T00:53:19;6.70;90.60
2054;DHT22;1032;52.542;13.440;2023-04-06T00:55:49;6.60;90.40
2054;DHT22;1032;52.542;13.440;2023-04-06T00:58:15;6.60;90.60
2054;DHT22;1032;52.542;13.440;2023-04-06T01:00:48;6.80;90.80
2054;DHT22;1032;52.542;13.440;2023-04-06T01:03:17;6.60;90.80
2054;DHT22;1032;52.542;13.440;2023-04-06T01:05:45;6.40;90.70
2054;DHT22;1032;52.542;13.440;2023-04-06T01:08:20;6.40;90.70
2054;DHT22;1032;52.542;13.440;2023-04-06T01:10:50;6.60;90.90
2054;DHT22;1032;52.542;13.440;2023-04-06T01:13:24;6.50;90.80
2054;DHT22;1032;52.542;13.440;2023-04-06T01:16:07;6.30;90.60
2054;DHT22;1032;52.542;13.440;2023-04-06T01:18:52;6.50;90.80
2054;DHT22;1032;52.542;13.440;2023-04-06T01:21:23;6.70;90.90
2054;DHT22;1032;52.542;13.440;2023-04-06T01:24:09;6.50;90.80
2054;DHT22;1032;52.542;13.440;2023-04-06T01:27:00;6.40;90.80
2054;DHT22;1032;52.542;13.440;2023-04-06T01:29:34;6.60;90.90
2054;DHT22;1032;52.542;13.440;2023-04-06T01:32:04;6.50;90.80
2054;DHT22;1032;52.542;13.440;2023-04-06T01:34:35;6.80;91.00
2054;DHT22;1032;52.542;13.440;2023-04-06T01:37:04;6.50;90.90
2054;DHT22;1032;52.542;13.440;2023-04-06T01:39:33;6.40;90.70
2054;DHT22;1032;52.542;13.440;2023-04-06T01:42:01;6.50;91.00
2054;DHT22;1032;52.542;13.440;2023-04-06T01:44:31;6.60;91.00
2054;DHT22;1032;52.542;13.440;2023-04-06T01:47:06;6.10;90.60
2054;DHT22;1032;52.542;13.440;2023-04-06T01:49:33;6.50;91.10
2054;DHT22;1032;52.542;13.440;2023-04-06T01:52:00;6.30;91.00
2054;DHT22;1032;52.542;13.440;2023-04-06T01:54:27;6.40;91.10
2054;DHT22;1032;52.542;13.440;2023-04-06T01:57:06;6.50;91.10
2054;DHT22;1032;52.542;13.440;2023-04-06T01:59:39;5.80;90.80
2054;DHT22;1032;52.542;13.440;2023-04-06T02:02:13;6.60;91.20
2054;DHT22;1032;52.542;13.440;2023-04-06T02:04:44;6.30;91.20
2054;DHT22;1032;52.542;13.440;2023-04-06T02:07:13;6.60;91.30
2054;DHT22;1032;52.542;13.440;2023-04-06T02:09:39;6.20;91.10
2054;DHT22;1032;52.542;13.440;2023-04-06T02:12:13;6.10;91.10
2054;DHT22;1032;52.542;13.440;2023-04-06T02:14:40;6.50;91.20
2054;DHT22;1032;52.542;13.440;2023-04-06T02:17:07;6.40;91.20
2054;DHT22;1032;52.542;13.440;2023-04-06T02:19:33;6.40;91.20
2054;DHT22;1032;52.542;13.440;2023-04-06T02:22:00;6.20;91.10
2054;DHT22;1032;52.542;13.440;2023-04-06T02:24:27;6.20;91.20
2054;DHT22;1032;52.542;13.440;2023-04-06T02:26:53;6.30;91.20
2054;DHT22;1032;52.542;13.440;2023-04-06T02:29:21;6.60;91.50
2054;DHT22;1032;52.542;13.440;2023-04-06T02:31:49;6.50;91.40
2054;DHT22;1032;52.542;13.440;2023-04-06T02:34:16;5.70;90.90
2054;DHT22;1032;52.542;13.440;2023-04-06T02:36:47;6.50;91.40
2054;DHT22;1032;52.542;13.440;2023-04-06T02:39:14;6.20;91.30
2054;DHT22;1032;52.542;13.440;2023-04-06T02:41:41;6.30;91.40
2054;DHT22;1032;52.542;13.440;2023-04-06T02:44:08;5.70;91.10
2054;DHT22;1032;52.542;13.440;2023-04-06T02:46:40;6.10;91.20
2054;DHT22;1032;52.542;13.440;2023-04-06T02:49:07;6.30;91.40
2054;DHT22;1032;52.542;13.440;2023-04-06T02:51:34;6.10;91.40
2054;DHT22;1032;52.542;13.440;2023-04-06T02:54:16;6.20;91.50
2054;DHT22;1032;52.542;13.440;2023-04-06T02:56:43;5.90;91.40
2054;DHT22;1032;52.542;13.440;2023-04-06T02:59:10;6.10;91.50
2054;DHT22;1032;52.542;13.440;2023-04-06T03:01:37;5.90;91.70
2054;DHT22;1032;52.542;13.440;2023-04-06T03:04:06;5.30;91.70
2054;DHT22;1032;52.542;13.440;2023-04-06T03:06:33;6.00;92.10
2054;DHT22;1032;52.542;13.440;2023-04-06T03:09:10;5.60;92.10
2054;DHT22;1032;52.542;13.440;2023-04-06T03:11:39;5.60;92.30
2054;DHT22;1032;52.542;13.440;2023-04-06T03:14:06;5.70;92.50
2054;DHT22;1032;52.542;13.440;2023-04-06T03:16:33;5.70;92.60
2054;DHT22;1032;52.542;13.440;2023-04-06T03:19:01;5.60;92.60
2054;DHT22;1032;52.542;13.440;2023-04-06T03:21:33;5.20;92.50
2054;DHT22;1032;52.542;13.440;2023-04-06T03:24:00;5.60;92.90
2054;DHT22;1032;52.542;13.440;2023-04-06T03:26:26;5.80;93.10
2054;DHT22;1032;52.542;13.440;2023-04-06T03:28:53;5.80;93.20
2054;DHT22;1032;52.542;13.440;2023-04-06T03:31:25;5.40;93.10
2054;DHT22;1032;52.542;13.440;2023-04-06T03:33:59;5.50;93.00
2054;DHT22;1032;52.542;13.440;2023-04-06T03:36:29;5.30;93.10
2054;DHT22;1032;52.542;13.440;2023-04-06T03:38:58;5.30;93.30
2054;DHT22;1032;52.542;13.440;2023-04-06T03:41:25;5.40;93.50
2054;DHT22;1032;52.542;13.440;2023-04-06T03:44:08;5.20;93.50
2054;DHT22;1032;52.542;13.440;2023-04-06T03:46:36;5.40;93.60
2054;DHT22;1032;52.542;13.440;2023-04-06T03:49:03;5.10;93.50
2054;DHT22;1032;52.542;13.440;2023-04-06T03:51:30;4.80;93.40
2054;DHT22;1032;52.542;13.440;2023-04-06T03:53:56;5.30;93.70
2054;DHT22;1032;52.542;13.440;2023-04-06T03:56:24;5.10;93.80
2054;DHT22;1032;52.542;13.440;2023-04-06T03:58:53;5.10;93.80
2054;DHT22;1032;52.542;13.440;2023-04-06T04:01:20;5.00;93.60
2054;DHT22;1032;52.542;13.440;2023-04-06T04:03:47;5.10;93.90
2054;DHT22;1032;52.542;13.440;2023-04-06T04:06:13;5.10;94.00
2054;DHT22;1032;52.542;13.440;2023-04-06T04:08:41;5.10;93.90
2054;DHT22;1032;52.542;13.440;2023-04-06T04:11:07;5.10;94.30
2054;DHT22;1032;52.542;13.440;2023-04-06T04:13:35;4.60;94.00
2054;DHT22;1032;52.542;13.440;2023-04-06T04:16:05;4.90;94.30
2054;DHT22;1032;52.542;13.440;2023-04-06T04:18:31;4.90;94.50
2054;DHT22;1032;52.542;13.440;2023-04-06T04:20:58;4.90;94.60
2054;DHT22;1032;52.542;13.440;2023-04-06T04:23:25;5.00;94.60
2054;DHT22;1032;52.542;13.440;2023-04-06T04:25:52;4.90;94.70
2054;DHT22;1032;52.542;13.440;2023-04-06T04:28:18;4.80;94.80
2054;DHT22;1032;52.542;13.440;2023-04-06T04:30:47;4.80;94.90
2054;DHT22;1032;52.542;13.440;2023-04-06T04:33:14;4.90;95.10
2054;DHT22;1032;52.542;13.440;2023-04-06T04:35:42;4.80;95.80
2054;DHT22;1032;52.542;13.440;2023-04-06T04:38:11;4.40;95.20
2054;DHT22;1032;52.542;13.440;2023-04-06T04:40:41;4.70;95.60
2054;DHT22;1032;52.542;13.440;2023-04-06T04:43:10;4.80;95.50
2054;DHT22;1032;52.542;13.440;2023-04-06T04:45:38;4.90;95.70
2054;DHT22;1032;52.542;13.440;2023-04-06T04:48:15;4.60;95.70
2054;DHT22;1032;52.542;13.440;2023-04-06T04:50:50;4.90;95.90
2054;DHT22;1032;52.542;13.440;2023-04-06T04:53:20;4.80;96.10
2054;DHT22;1032;52.542;13.440;2023-04-06T04:55:46;4.80;96.10
2054;DHT22;1032;52.542;13.440;2023-04-06T04:58:14;4.80;96.20
2054;DHT22;1032;52.542;13.440;2023-04-06T05:00:48;4.30;96.10
2054;DHT22;1032;52.542;13.440;2023-04-06T05:03:19;4.40;96.30
2054;DHT22;1032;52.542;13.440;2023-04-06T05:05:55;4.90;96.50
2054;DHT22;1032;52.542;13.440;2023-04-06T05:08:24;4.60;96.80
2054;DHT22;1032;52.542;13.440;2023-04-06T05:10:51;4.90;97.10
2054;DHT22;1032;52.542;13.440;2023-04-06T05:13:18;4.80;97.30
2054;DHT22;1032;52.542;13.440;2023-04-06T05:15:47;4.90;97.70
2054;DHT22;1032;52.542;13.440;2023-04-06T05:18:24;4.80;97.90
2054;DHT22;1032;52.542;13.440;2023-04-06T05:20:50;4.70;98.00
2054;DHT22;1032;52.542;13.440;2023-04-06T05:23:20;4.80;98.30
2054;DHT22;1032;52.542;13.440;2023-04-06T05:25:49;5.00;98.40
2054;DHT22;1032;52.542;13.440;2023-04-06T05:28:20;5.10;98.60
2054;DHT22;1032;52.542;13.440;2023-04-06T05:30:46;4.80;98.50
2054;DHT22;1032;52.542;13.440;2023-04-06T05:33:14;5.00;98.50
2054;DHT22;1032;52.542;13.440;2023-04-06T05:36:01;5.00;98.40
2054;DHT22;1032;52.542;13.440;2023-04-06T05:38:29;5.10;98.80
2054;DHT22;1032;52.542;13.440;2023-04-06T05:41:01;5.30;98.80
2054;DHT22;1032;52.542;13.440;2023-04-06T05:43:31;5.20;98.60
2054;DHT22;1032;52.542;13.440;2023-04-06T05:45:59;5.50;98.60
2054;DHT22;1032;52.542;13.440;2023-04-06T05:48:26;5.50;98.40
2054;DHT22;1032;52.542;13.440;2023-04-06T05:50:52;5.60;98.10
2054;DHT22;1032;52.542;13.440;2023-04-06T05:53:26;5.70;98.10
2054;DHT22;1032;52.542;13.440;2023-04-06T05:55:56;5.90;98.00
2054;DHT22;1032;52.542;13.440;2023-04-06T05:58:25;5.90;97.80
2054;DHT22;1032;52.542;13.440;2023-04-06T06:00:56;6.20;97.70
2054;DHT22;1032;52.542;13.440;2023-04-06T06:03:24;6.30;97.60
2054;DHT22;1032;52.542;13.440;2023-04-06T06:05:53;5.80;97.10
2054;DHT22;1032;52.542;13.440;2023-04-06T06:08:30;6.40;97.10
2054;DHT22;1032;52.542;13.440;2023-04-06T06:10:59;6.50;96.90
2054;DHT22;1032;52.542;13.440;2023-04-06T06:13:26;6.20;96.50
2054;DHT22;1032;52.542;13.440;2023-04-06T06:15:53;6.70;96.40
2054;DHT22;1032;52.542;13.440;2023-04-06T06:18:21;6.70;96.10
2054;DHT22;1032;52.542;13.440;2023-04-06T06:20:51;6.70;95.90
2054;DHT22;1032;52.542;13.440;2023-04-06T06:23:18;6.60;95.70
2054;DHT22;1032;52.542;13.440;2023-04-06T06:25:47;6.90;95.60
2054;DHT22;1032;52.542;13.440;2023-04-06T06:28:14;7.00;95.30
2054;DHT22;1032;52.542;13.440;2023-04-06T06:30:40;7.00;95.10
2054;DHT22;1032;52.542;13.440;2023-04-06T06:33:07;7.00;95.00
2054;DHT22;1032;52.542;13.440;2023-04-06T06:35:34;6.80;94.90
2054;DHT22;1032;52.542;13.440;2023-04-06T06:38:03;6.90;94.60
2054;DHT22;1032;52.542;13.440;2023-04-06T06:40:31;7.00;94.70
2054;DHT22;1032;52.542;13.440;2023-04-06T06:42:59;7.00;94.60
2054;DHT22;1032;52.542;13.440;2023-04-06T06:45:36;6.80;94.20
2054;DHT22;1032;52.542;13.440;2023-04-06T06:48:03;7.10;94.20
2054;DHT22;1032;52.542;13.440;2023-04-06T06:50:30;6.70;93.90
2054;DHT22;1032;52.542;13.440;2023-04-06T06:52:56;7.30;94.20
2054;DHT22;1032;52.542;13.440;2023-04-06T06:55:23;7.10;93.80
2054;DHT22;1032;52.542;13.440;2023-04-06T06:57:51;7.30;93.80
2054;DHT22;1032;52.542;13.440;2023-04-06T07:00:19;7.40;93.70
2054;DHT22;1032;52.542;13.440;2023-04-06T07:02:46;7.40;93.60
2054;DHT22;1032;52.542;13.440;2023-04-06T07:05:13;7.60;93.40
2054;DHT22;1032;52.542;13.440;2023-04-06T07:07:40;7.40;93.30
2054;DHT22;1032;52.542;13.440;2023-04-06T07:10:08;8.10;93.20
2054;DHT22;1032;52.542;13.440;2023-04-06T07:12:37;7.80;92.80
2054;DHT22;1032;52.542;13.440;2023-04-06T07:15:05;7.70;92.70
2054;DHT22;1032;52.542;13.440;2023-04-06T07:17:34;7.70;92.70
2054;DHT22;1032;52.542;13.440;2023-04-06T07:20:01;7.80;92.60
2054;DHT22;1032;52.542;13.440;2023-04-06T07:22:28;7.50;92.30
2054;DHT22;1032;52.542;13.440;2023-04-06T07:24:54;7.50;92.30
2054;DHT22;1032;52.542;13.440;2023-04-06T07:27:21;7.80;92.30
2054;DHT22;1032;52.542;13.440;2023-04-06T07:29:48;7.70;91.90
2054;DHT22;1032;52.542;13.440;2023-04-06T07:32:15;8.00;91.60
2054;DHT22;1032;52.542;13.440;2023-04-06T07:34:43;7.90;91.50
2054;DHT22;1032;52.542;13.440;2023-04-06T07:37:10;8.00;91.70
2054;DHT22;1032;52.542;13.440;2023-04-06T07:39:37;7.80;91.40
2054;DHT22;1032;52.542;13.440;2023-04-06T07:42:04;7.80;91.30
2054;DHT22;1032;52.542;13.440;2023-04-06T07:44:31;7.80;91.10
2054;DHT22;1032;52.542;13.440;2023-04-06T07:46:58;7.50;90.60
2054;DHT22;1032;52.542;13.440;2023-04-06T07:49:25;7.90;90.40
2054;DHT22;1032;52.542;13.440;2023-04-06T07:51:53;7.70;90.10
2054;DHT22;1032;52.542;13.440;2023-04-06T07:54:20;7.80;90.10
2054;DHT22;1032;52.542;13.440;2023-04-06T07:56:47;7.70;90.10
2054;DHT22;1032;52.542;13.440;2023-04-06T07:59:14;8.10;90.10
2054;DHT22;1032;52.542;13.440;2023-04-06T08:01:40;7.80;89.70
2054;DHT22;1032;52.542;13.440;2023-04-06T08:04:07;7.90;89.10
2054;DHT22;1032;52.542;13.440;2023-04-06T08:06:33;8.00;89.10
2054;DHT22;1032;52.542;13.440;2023-04-06T08:09:03;7.90;89.10
2054;DHT22;1032;52.542;13.440;2023-04-06T08:11:29;8.10;88.90
2054;DHT22;1032;52.542;13.440;2023-04-06T08:13:56;8.10;88.60
2054;DHT22;1032;52.542;13.440;2023-04-06T08:16:23;8.00;88.40
2054;DHT22;1032;52.542;13.440;2023-04-06T08:18:50;8.30;88.70
2054;DHT22;1032;52.542;13.440;2023-04-06T08:21:16;8.00;87.90
2054;DHT22;1032;52.542;13.440;2023-04-06T08:23:43;8.40;87.90
2054;DHT22;1032;52.542;13.440;2023-04-06T08:26:12;8.40;87.20
2054;DHT22;1032;52.542;13.440;2023-04-06T08:28:39;7.70;85.50
2054;DHT22;1032;52.542;13.440;2023-04-06T08:31:06;8.20;85.10
2054;DHT22;1032;52.542;13.440;2023-04-06T08:33:33;7.70;83.60
2054;DHT22;1032;52.542;13.440;2023-04-06T08:36:07;8.30;83.20
2054;DHT22;1032;52.542;13.440;2023-04-06T08:38:34;8.60;82.00
2054;DHT22;1032;52.542;13.440;2023-04-06T08:41:06;9.00;81.70
2054;DHT22;1032;52.542;13.440;2023-04-06T08:43:41;8.80;80.90
2054;DHT22;1032;52.542;13.440;2023-04-06T08:46:09;8.60;80.50
2054;DHT22;1032;52.542;13.440;2023-04-06T08:48:36;8.70;79.90
2054;DHT22;1032;52.542;13.440;2023-04-06T08:51:04;8.90;79.70
2054;DHT22;1032;52.542;13.440;2023-04-06T08:53:31;8.80;79.20
2054;DHT22;1032;52.542;13.440;2023-04-06T08:55:58;9.20;80.10
2054;DHT22;1032;52.542;13.440;2023-04-06T08:58:25;9.10;79.80
2054;DHT22;1032;52.542;13.440;2023-04-06T09:00:55;8.70;78.50
2054;DHT22;1032;52.542;13.440;2023-04-06T09:03:22;8.90;78.00
2054;DHT22;1032;52.542;13.440;2023-04-06T09:05:50;9.40;78.60
2054;DHT22;1032;52.542;13.440;2023-04-06T09:08:17;9.40;78.40
2054;DHT22;1032;52.542;13.440;2023-04-06T09:10:44;9.50;76.80
2054;DHT22;1032;52.542;13.440;2023-04-06T09:13:10;8.90;74.80
2054;DHT22;1032;52.542;13.440;2023-04-06T09:15:37;9.20;74.90
2054;DHT22;1032;52.542;13.440;2023-04-06T09:18:06;9.20;74.30
2054;DHT22;1032;52.542;13.440;2023-04-06T09:20:33;9.20;74.60
2054;DHT22;1032;52.542;13.440;2023-04-06T09:23:00;9.20;74.30
2054;DHT22;1032;52.542;13.440;2023-04-06T09:25:27;9.60;72.60
2054;DHT22;1032;52.542;13.440;2023-04-06T09:27:58;9.30;71.70
2054;DHT22;1032;52.542;13.440;2023-04-06T09:30:25;9.40;71.60
2054;DHT22;1032;52.542;13.440;2023-04-06T09:32:54;9.30;72.50
2054;DHT22;1032;52.542;13.440;2023-04-06T09:35:23;9.60;72.10
2054;DHT22;1032;52.542;13.440;2023-04-06T09:37:52;9.50;71.80
2054;DHT22;1032;52.542;13.440;2023-04-06T09:40:20;9.30;71.90
2054;DHT22;1032;52.542;13.440;2023-04-06T09:42:48;9.60;70.60
2054;DHT22;1032;52.542;13.440;2023-04-06T09:45:17;9.20;69.60
2054;DHT22;1032;52.542;13.440;2023-04-06T09:47:45;9.40;69.00
2054;DHT22;1032;52.542;13.440;2023-04-06T09:50:12;9.60;68.00
2054;DHT22;1032;52.542;13.440;2023-04-06T09:52:46;9.90;68.70
2054;DHT22;1032;52.542;13.440;2023-04-06T09:55:17;9.60;67.60
2054;DHT22;1032;52.542;13.440;2023-04-06T09:57:52;9.80;68.20
2054;DHT22;1032;52.542;13.440;2023-04-06T10:00:22;9.90;68.50
2054;DHT22;1032;52.542;13.440;2023-04-06T10:02:53;9.70;68.40
2054;DHT22;1032;52.542;13.440;2023-04-06T10:05:25;10.20;67.00
2054;DHT22;1032;52.542;13.440;2023-04-06T10:07:57;9.90;63.00
2054;DHT22;1032;52.542;13.440;2023-04-06T10:10:26;10.20;59.20
2054;DHT22;1032;52.542;13.440;2023-04-06T10:12:53;10.90;59.10
2054;DHT22;1032;52.542;13.440;2023-04-06T10:15:21;10.00;58.70
2054;DHT22;1032;52.542;13.440;2023-04-06T10:17:48;11.00;58.60
2054;DHT22;1032;52.542;13.440;2023-04-06T10:20:19;11.30;58.30
2054;DHT22;1032;52.542;13.440;2023-04-06T10:22:53;11.10;57.80
2054;DHT22;1032;52.542;13.440;2023-04-06T10:25:27;11.40;58.60
2054;DHT22;1032;52.542;13.440;2023-04-06T10:27:59;11.20;57.80
2054;DHT22;1032;52.542;13.440;2023-04-06T10:30:26;11.50;58.20
2054;DHT22;1032;52.542;13.440;2023-04-06T10:32:54;10.60;57.10
2054;DHT22;1032;52.542;13.440;2023-04-06T10:35:21;11.60;56.70
2054;DHT22;1032;52.542;13.440;2023-04-06T10:37:50;11.50;56.80
2054;DHT22;1032;52.542;13.440;2023-04-06T10:40:22;11.70;57.60
2054;DHT22;1032;52.542;13.440;2023-04-06T10:42:52;11.50;57.10
2054;DHT22;1032;52.542;13.440;2023-04-06T10:45:20;10.90;56.90
2054;DHT22;1032;52.542;13.440;2023-04-06T10:47:47;11.40;56.60
2054;DHT22;1032;52.542;13.440;2023-04-06T10:50:15;10.90;56.30
2054;DHT22;1032;52.542;13.440;2023-04-06T10:52:43;11.00;56.40
2054;DHT22;1032;52.542;13.440;2023-04-06T10:55:12;11.50;56.50
2054;DHT22;1032;52.542;13.440;2023-04-06T10:57:39;10.90;55.60
2054;DHT22;1032;52.542;13.440;2023-04-06T11:00:08;11.30;56.10
2054;DHT22;1032;52.542;13.440;2023-04-06T11:02:35;11.00;55.10
2054;DHT22;1032;52.542;13.440;2023-04-06T11:05:03;11.30;55.40
2054;DHT22;1032;52.542;13.440;2023-04-06T11:07:30;12.00;55.10
2054;DHT22;1032;52.542;13.440;2023-04-06T11:09:57;12.00;54.30
2054;DHT22;1032;52.542;13.440;2023-04-06T11:12:24;11.60;53.90
2054;DHT22;1032;52.542;13.440;2023-04-06T11:14:55;11.60;53.90
2054;DHT22;1032;52.542;13.440;2023-04-06T11:17:28;11.50;54.00
2054;DHT22;1032;52.542;13.440;2023-04-06T11:19:55;12.00;54.00
2054;DHT22;1032;52.542;13.440;2023-04-06T11:22:22;12.00;54.20
2054;DHT22;1032;52.542;13.440;2023-04-06T11:24:48;11.60;53.60
2054;DHT22;1032;52.542;13.440;2023-04-06T11:27:15;10.90;53.60
2054;DHT22;1032;52.542;13.440;2023-04-06T11:29:42;11.60;53.70
2054;DHT22;1032;52.542;13.440;2023-04-06T11:32:11;11.20;52.40
2054;DHT22;1032;52.542;13.440;2023-04-06T11:34:47;11.60;52.90
2054;DHT22;1032;52.542;13.440;2023-04-06T11:37:14;12.00;52.80
2054;DHT22;1032;52.542;13.440;2023-04-06T11:39:48;11.50;52.70
2054;DHT22;1032;52.542;13.440;2023-04-06T11:42:21;11.70;53.30
2054;DHT22;1032;52.542;13.440;2023-04-06T11:44:50;11.50;52.90
2054;DHT22;1032;52.542;13.440;2023-04-06T11:47:19;11.70;52.60
2054;DHT22;1032;52.542;13.440;2023-04-06T11:49:48;11.50;51.90
2054;DHT22;1032;52.542;13.440;2023-04-06T11:52:17;11.70;52.20
2054;DHT22;1032;52.542;13.440;2023-04-06T11:54:44;11.90;52.10
2054;DHT22;1032;52.542;13.440;2023-04-06T11:57:11;11.80;52.30
2054;DHT22;1032;52.542;13.440;2023-04-06T11:59:37;12.10;52.70
2054;DHT22;1032;52.542;13.440;2023-04-06T12:02:04;12.20;52.00
2054;DHT22;1032;52.542;13.440;2023-04-06T12:04:31;11.70;50.90
2054;DHT22;1032;52.542;13.440;2023-04-06T12:06:59;12.80;51.00
2054;DHT22;1032;52.542;13.440;2023-04-06T12:09:26;12.80;50.90
2054;DHT22;1032;52.542;13.440;2023-04-06T12:11:52;12.30;50.30
2054;DHT22;1032;52.542;13.440;2023-04-06T12:14:20;12.40;50.60
2054;DHT22;1032;52.542;13.440;2023-04-06T12:16:47;13.00;51.40
2054;DHT22;1032;52.542;13.440;2023-04-06T12:19:14;13.30;51.70
2054;DHT22;1032;52.542;13.440;2023-04-06T12:21:40;13.00;51.50
2054;DHT22;1032;52.542;13.440;2023-04-06T12:24:09;13.30;51.20
2054;DHT22;1032;52.542;13.440;2023-04-06T12:26:35;12.80;50.90
2054;DHT22;1032;52.542;13.440;2023-04-06T12:29:02;13.00;51.30
2054;DHT22;1032;52.542;13.440;2023-04-06T12:31:34;12.60;51.00
2054;DHT22;1032;52.542;13.440;2023-04-06T12:34:01;12.50;51.60
2054;DHT22;1032;52.542;13.440;2023-04-06T12:36:28;12.50;51.10
2054;DHT22;1032;52.542;13.440;2023-04-06T12:38:55;12.20;51.00
2054;DHT22;1032;52.542;13.440;2023-04-06T12:41:23;12.30;51.50
2054;DHT22;1032;52.542;13.440;2023-04-06T12:43:50;12.10;50.70
2054;DHT22;1032;52.542;13.440;2023-04-06T12:46:17;11.90;50.50
2054;DHT22;1032;52.542;13.440;2023-04-06T12:48:43;12.20;50.80
2054;DHT22;1032;52.542;13.440;2023-04-06T12:51:10;12.40;51.10
2054;DHT22;1032;52.542;13.440;2023-04-06T12:53:36;11.70;50.60
2054;DHT22;1032;52.542;13.440;2023-04-06T12:56:11;12.20;51.30
2054;DHT22;1032;52.542;13.440;2023-04-06T12:58:39;12.40;50.70
2054;DHT22;1032;52.542;13.440;2023-04-06T13:01:07;12.40;51.30
2054;DHT22;1032;52.542;13.440;2023-04-06T13:03:34;11.90;50.60
2054;DHT22;1032;52.542;13.440;2023-04-06T13:06:01;12.10;50.80
2054;DHT22;1032;52.542;13.440;2023-04-06T13:08:28;11.80;50.80
2054;DHT22;1032;52.542;13.440;2023-04-06T13:10:55;11.90;50.80
2054;DHT22;1032;52.542;13.440;2023-04-06T13:13:23;11.90;51.10
2054;DHT22;1032;52.542;13.440;2023-04-06T13:15:51;11.80;51.40
2054;DHT22;1032;52.542;13.440;2023-04-06T13:18:18;11.80;51.30
2054;DHT22;1032;52.542;13.440;2023-04-06T13:20:46;12.20;51.90
2054;DHT22;1032;52.542;13.440;2023-04-06T13:23:13;11.60;51.60
2054;DHT22;1032;52.542;13.440;2023-04-06T13:25:40;12.00;51.80
2054;DHT22;1032;52.542;13.440;2023-04-06T13:28:07;11.10;51.30
2054;DHT22;1032;52.542;13.440;2023-04-06T13:30:33;11.50;51.80
2054;DHT22;1032;52.542;13.440;2023-04-06T13:33:02;12.00;52.10
2054;DHT22;1032;52.542;13.440;2023-04-06T13:35:30;11.70;51.90
2054;DHT22;1032;52.542;13.440;2023-04-06T13:37:56;11.50;51.70
2054;DHT22;1032;52.542;13.440;2023-04-06T13:40:23;11.80;52.10
2054;DHT22;1032;52.542;13.440;2023-04-06T13:42:50;11.30;51.90
2054;DHT22;1032;52.542;13.440;2023-04-06T13:45:16;11.20;52.00
2054;DHT22;1032;52.542;13.440;2023-04-06T13:47:43;11.40;52.10
2054;DHT22;1032;52.542;13.440;2023-04-06T13:50:12;11.50;52.10
2054;DHT22;1032;52.542;13.440;2023-04-06T13:52:39;12.10;51.60
2054;DHT22;1032;52.542;13.440;2023-04-06T13:55:06;11.70;50.90
2054;DHT22;1032;52.542;13.440;2023-04-06T13:57:33;11.80;51.70
2054;DHT22;1032;52.542;13.440;2023-04-06T14:00:01;11.50;51.80
2054;DHT22;1032;52.542;13.440;2023-04-06T14:02:30;11.60;52.00
2054;DHT22;1032;52.542;13.440;2023-04-06T14:04:57;11.10;51.90
2054;DHT22;1032;52.542;13.440;2023-04-06T14:07:25;11.50;52.20
2054;DHT22;1032;52.542;13.440;2023-04-06T14:09:52;11.80;52.50
2054;DHT22;1032;52.542;13.440;2023-04-06T14:12:18;11.50;51.80
2054;DHT22;1032;52.542;13.440;2023-04-06T14:14:45;11.60;51.60
2054;DHT22;1032;52.542;13.440;2023-04-06T14:17:12;12.00;52.10
2054;DHT22;1032;52.542;13.440;2023-04-06T14:19:39;11.50;51.30
2054;DHT22;1032;52.542;13.440;2023-04-06T14:22:05;11.60;51.80
2054;DHT22;1032;52.542;13.440;2023-04-06T14:24:33;11.40;51.50
2054;DHT22;1032;52.542;13.440;2023-04-06T14:27:01;11.60;51.80
2054;DHT22;1032;52.542;13.440;2023-04-06T14:29:28;11.50;52.10
2054;DHT22;1032;52.542;13.440;2023-04-06T14:31:54;11.90;51.90
2054;DHT22;1032;52.542;13.440;2023-04-06T14:34:25;11.90;52.00
2054;DHT22;1032;52.542;13.440;2023-04-06T14:36:51;11.90;51.80
2054;DHT22;1032;52.542;13.440;2023-04-06T14:39:18;12.10;51.80
2054;DHT22;1032;52.542;13.440;2023-04-06T14:41:47;11.90;51.50
2054;DHT22;1032;52.542;13.440;2023-04-06T14:44:14;11.50;51.20
2054;DHT22;1032;52.542;13.440;2023-04-06T14:46:41;11.80;51.40
2054;DHT22;1032;52.542;13.440;2023-04-06T14:49:08;11.80;51.10
2054;DHT22;1032;52.542;13.440;2023-04-06T14:51:36;12.50;50.70
2054;DHT22;1032;52.542;13.440;2023-04-06T14:54:02;12.30;50.60
2054;DHT22;1032;52.542;13.440;2023-04-06T14:56:29;12.20;51.30
2054;DHT22;1032;52.542;13.440;2023-04-06T14:58:59;12.40;51.30
2054;DHT22;1032;52.542;13.440;2023-04-06T15:01:27;11.80;50.80
2054;DHT22;1032;52.542;13.440;2023-04-06T15:03:53;11.90;51.00
2054;DHT22;1032;52.542;13.440;2023-04-06T15:06:20;12.30;50.80
2054;DHT22;1032;52.542;13.440;2023-04-06T15:08:47;11.70;50.40
2054;DHT22;1032;52.542;13.440;2023-04-06T15:11:14;11.70;50.70
2054;DHT22;1032;52.542;13.440;2023-04-06T15:13:41;11.60;50.70
2054;DHT22;1032;52.542;13.440;2023-04-06T15:16:09;11.60;51.00
2054;DHT22;1032;52.542;13.440;2023-04-06T15:18:36;11.50;50.80
2054;DHT22;1032;52.542;13.440;2023-04-06T15:21:03;12.10;51.00
2054;DHT22;1032;52.542;13.440;2023-04-06T15:23:29;11.80;50.80
2054;DHT22;1032;52.542;13.440;2023-04-06T15:25:57;11.80;51.00
2054;DHT22;1032;52.542;13.440;2023-04-06T15:28:24;11.80;51.00
2054;DHT22;1032;52.542;13.440;2023-04-06T15:30:51;11.70;51.00
2054;DHT22;1032;52.542;13.440;2023-04-06T15:33:20;11.80;50.80
2054;DHT22;1032;52.542;13.440;2023-04-06T15:35:47;11.90;51.00
2054;DHT22;1032;52.542;13.440;2023-04-06T15:38:14;11.50;50.90
2054;DHT22;1032;52.542;13.440;2023-04-06T15:40:43;11.80;51.40
2054;DHT22;1032;52.542;13.440;2023-04-06T15:43:11;11.50;51.40
2054;DHT22;1032;52.542;13.440;2023-04-06T15:45:37;11.60;51.30
2054;DHT22;1032;52.542;13.440;2023-04-06T15:48:04;11.50;51.10
2054;DHT22;1032;52.542;13.440;2023-04-06T15:50:33;11.50;51.00
2054;DHT22;1032;52.542;13.440;2023-04-06T15:53:00;11.50;51.00
2054;DHT22;1032;52.542;13.440;2023-04-06T15:55:27;11.60;51.30
2054;DHT22;1032;52.542;13.440;2023-04-06T15:57:53;11.80;51.60
2054;DHT22;1032;52.542;13.440;2023-04-06T16:00:20;11.50;51.20
2054;DHT22;1032;52.542;13.440;2023-04-06T16:02:47;11.50;51.20